Aviation Digital Data Service (ADDS)

Output produced by TAFs form (0134 UTC 23 December 2014)
found at http://www.aviationweather.gov/adds/tafs/
 
KRIC 222336Z 2300/2324 01007KT 3SM -DZ BR OVC004 
     FM230400 35003KT 3/4SM -DZ BR OVC003 
     FM231500 03003KT 2SM -DZ BR OVC004 
     FM232000 15004KT 2SM BR OVC010